Home > Products > Valid Products > MTR

000
SAUS46 KPDT 011956
MTRMEH
METAR KMEH 011956Z AUTO 00000KT 10SM CLR 05/M12 A3011 RMK AO2 SLP225
T00501117





000
SAUS46 KPDT 011856
MTRMEH
METAR KMEH 011856Z AUTO 00000KT 10SM CLR 04/M11 A3013 RMK AO2 SLP233
T00391106





000
SAUS46 KPDT 011856
MTRMEH
METAR KMEH 011856Z AUTO 00000KT 10SM CLR 04/M11 A3013 RMK AO2 SLP233
T00391106





000
SAUS46 KPDT 011756
MTRMEH
METAR KMEH 011756Z AUTO 00000KT 10SM CLR 02/M09 A3015 RMK AO2 SLP239
I6000 T00221094 10022 21106 58003





000
SAUS46 KPDT 011756
MTRMEH
METAR KMEH 011756Z AUTO 00000KT 10SM CLR 02/M09 A3015 RMK AO2 SLP239
I6000 T00221094 10022 21106 58003





000
SAUS46 KPDT 011656
MTRMEH
METAR KMEH 011656Z AUTO 00000KT 10SM CLR M02/M06 A3015 RMK AO2
SLP245 T10221061





000
SAUS46 KPDT 011556
MTRMEH
METAR KMEH 011556Z AUTO 00000KT 7SM CLR M08/M09 A3017 RMK AO2 SLP255
T10781094





000
SAUS46 KPDT 011502 COR
MTRMEH
METAR KMEH 011456Z AUTO 00000KT 10SM CLR M11/M13 A3016 RMK AO2
SLP255 I1000 I3000 T11061128 55002





000
SAUS46 KPDT 011502 COR
MTRMEH
METAR KMEH 011456Z AUTO 00000KT 10SM CLR M11/M13 A3016 RMK AO2
SLP255 I1000 I3000 T11061128 55002





000
SAUS46 KPDT 011458
MTRMEH
METAR KMEH 011456Z AUTO 00000KT 10SM CLR M11/M13 A3016 RMK AO2
SLP255 I1000 I3000 T11061128 55002





000
SAUS46 KPDT 011458
MTRMEH
METAR KMEH 011456Z AUTO 00000KT 10SM CLR M11/M13 A3016 RMK AO2
SLP255 I1000 I3000 T11061128 55002





000
SAUS46 KPDT 011356
MTRMEH
METAR KMEH 011356Z AUTO 00000KT 9SM CLR M11/M13 A3014 RMK AO2 SLP249
I1000 T11061128





000
SAUS46 KPDT 011356
MTRMEH
METAR KMEH 011356Z AUTO 00000KT 9SM CLR M11/M13 A3014 RMK AO2 SLP249
I1000 T11061128





000
SAUS46 KPDT 011256
MTRMEH
METAR KMEH 011256Z AUTO 00000KT 10SM CLR M10/M12 A3017 RMK AO2
SLP253 I1000 T11001122





000
SAUS46 KPDT 011256
MTRMEH
METAR KMEH 011256Z AUTO 00000KT 10SM CLR M10/M12 A3017 RMK AO2
SLP253 I1000 T11001122





000
SAUS46 KPDT 011156
MTRMEH
METAR KMEH 011156Z AUTO 00000KT 10SM CLR M10/M12 A3016 RMK AO2
SLP252 I1000 I6000 T11001122 11061 21100 51002





000
SAUS46 KPDT 011056
MTRMEH
METAR KMEH 011056Z AUTO 00000KT 10SM CLR M09/M11 A3016 RMK AO2
SLP248 I1000 T10941111





000
SAUS46 KPDT 010956
MTRMEH
METAR KMEH 010956Z AUTO 00000KT 10SM CLR M09/M11 A3017 RMK AO2
SLP251 I1000 T10891106





000
SAUS46 KPDT 010956
MTRMEH
METAR KMEH 010956Z AUTO 00000KT 10SM CLR M09/M11 A3017 RMK AO2
SLP251 I1000 T10891106





000
SAUS46 KPDT 010856
MTRMEH
METAR KMEH 010856Z AUTO 00000KT 10SM CLR M08/M10 A3016 RMK AO2
SLP248 I1000 I3000 T10831100 53006





000
SAUS46 KPDT 010756
MTRMEH
METAR KMEH 010756Z AUTO 00000KT 10SM CLR M08/M09 A3015 RMK AO2
SLP244 I1000 T10781094 400221078





000
SAUS46 KPDT 010656
MTRMEH
METAR KMEH 010656Z AUTO 00000KT 10SM CLR M07/M09 A3014 RMK AO2
SLP242 T10721089





000
SAUS46 KPDT 010656
MTRMEH
METAR KMEH 010656Z AUTO 00000KT 10SM CLR M07/M09 A3014 RMK AO2
SLP242 T10721089





000
SAUS46 KPDT 010557
MTRMEH
METAR KMEH 010556Z AUTO 00000KT 10SM CLR M06/M08 A3014 RMK AO2
SLP241 T10611083 10011 21061 51017





000
SAUS46 KPDT 010557
MTRMEH
METAR KMEH 010556Z AUTO 00000KT 10SM CLR M06/M08 A3014 RMK AO2
SLP241 T10611083 10011 21061 51017





000
SAUS46 KPDT 010457
MTRMEH
METAR KMEH 010456Z AUTO 00000KT 10SM CLR M05/M08 A3012 RMK AO2
SLP234 T10501078





000
SAUS46 KPDT 010457
MTRMEH
METAR KMEH 010456Z AUTO 00000KT 10SM CLR M05/M08 A3012 RMK AO2
SLP234 T10501078





000
SAUS46 KPDT 010356
MTRMEH
METAR KMEH 010356Z AUTO 00000KT 10SM CLR M03/M08 A3011 RMK AO2
SLP228 T10331078





000
SAUS46 KPDT 010356
MTRMEH
METAR KMEH 010356Z AUTO 00000KT 10SM CLR M03/M08 A3011 RMK AO2
SLP228 T10331078





000
SAUS46 KPDT 010256
MTRMEH
METAR KMEH 010256Z AUTO 00000KT 8SM CLR M02/M08 A3008 RMK AO2 SLP217
T10221078 53012





000
SAUS46 KPDT 010156
MTRMEH
METAR KMEH 010156Z AUTO 00000KT 10SM CLR M02/M08 A3006 RMK AO2
SLP209 T10171083





000
SAUS46 KPDT 010100
MTRMEH
METAR KMEH 010056Z AUTO VRB03KT 10SM CLR 01/M09 A3005 RMK AO2 SLP200
T00061089





000
SAUS46 KPDT 010100
MTRMEH
METAR KMEH 010056Z AUTO VRB03KT 10SM CLR 01/M09 A3005 RMK AO2 SLP200
T00061089





000
SAUS46 KPDT 282356
MTRMEH
METAR KMEH 282356Z AUTO VRB04KT 10SM CLR 01/M08 A3004 RMK AO2 SLP195
T00111083 10022 21017 53012





000
SAUS46 KPDT 282356
MTRMEH
METAR KMEH 282356Z AUTO VRB04KT 10SM CLR 01/M08 A3004 RMK AO2 SLP195
T00111083 10022 21017 53012





000
SAUS46 KPDT 282256
MTRMEH
METAR KMEH 282256Z AUTO VRB03KT 10SM CLR 02/M08 A3003 RMK AO2 SLP188
T00171078





000
SAUS46 KPDT 282256
MTRMEH
METAR KMEH 282256Z AUTO VRB03KT 10SM CLR 02/M08 A3003 RMK AO2 SLP188
T00171078





000
SAUS46 KPDT 282156
MTRMEH
METAR KMEH 282156Z AUTO 36007KT 250V060 10SM CLR 02/M07 A3001 RMK
AO2 SLP182 T00171072





000
SAUS46 KPDT 282056
MTRMEH
METAR KMEH 282056Z AUTO VRB04KT 10SM CLR 01/M07 A3000 RMK AO2 SLP180
T00061072 51014





000
SAUS46 KPDT 281956
MTRMEH
METAR KMEH 281956Z AUTO VRB04KT 10SM SCT023 01/M06 A3000 RMK AO2
SLP179 T00061061





000
SAUS46 KPDT 281856
MTRMEH
METAR KMEH 281856Z AUTO VRB06KT 10SM CLR M01/M07 A2998 RMK AO2
SLP175 T10111067





000
SAUS46 KPDT 281856
MTRMEH
METAR KMEH 281856Z AUTO VRB06KT 10SM CLR M01/M07 A2998 RMK AO2
SLP175 T10111067





000
SAUS46 KPDT 281756
MTRMEH
METAR KMEH 281756Z AUTO VRB04KT 10SM CLR M02/M07 A2996 RMK AO2
SLP168 T10171067 11006 21044 53017





000
SAUS46 KPDT 281756
MTRMEH
METAR KMEH 281756Z AUTO VRB04KT 10SM CLR M02/M07 A2996 RMK AO2
SLP168 T10171067 11006 21044 53017





000
SAUS46 KPDT 281700
MTRMEH
METAR KMEH 281656Z AUTO VRB04KT 10SM CLR M03/M07 A2994 RMK AO2
SLP162 T10281067





000
SAUS46 KPDT 281700
MTRMEH
METAR KMEH 281656Z AUTO VRB04KT 10SM CLR M03/M07 A2994 RMK AO2
SLP162 T10281067





000
SAUS46 KPDT 281556
MTRMEH
METAR KMEH 281556Z AUTO VRB04KT 10SM SCT009 M04/M07 A2990 RMK AO2
SLP150 T10391067





000
SAUS46 KPDT 281551
MTRMEH
SPECI KMEH 281551Z AUTO VRB03KT 10SM SCT009 M04/M07 A2990 RMK AO2





000
SAUS46 KPDT 281551
MTRMEH
SPECI KMEH 281551Z AUTO VRB03KT 10SM SCT009 M04/M07 A2990 RMK AO2





000
SAUS46 KPDT 281543
MTRMEH
SPECI KMEH 281543Z AUTO VRB03KT 10SM BKN009 M04/M06 A2989 RMK AO2
T10391056





000
SAUS46 KPDT 281543
MTRMEH
SPECI KMEH 281543Z AUTO VRB03KT 10SM BKN009 M04/M06 A2989 RMK AO2
T10391056





000
SAUS46 KPDT 281522
MTRMEH
SPECI KMEH 281522Z AUTO 00000KT 10SM SCT006 SCT011 M04/M06 A2989 RMK
AO2 T10391061





000
SAUS46 KPDT 281512
MTRMEH
SPECI KMEH 281510Z AUTO VRB03KT 10SM BKN006 BKN011 M04/M05 A2989 RMK
AO2 CIG 004V009 T10391050





000
SAUS46 KPDT 281456
MTRMEH
METAR KMEH 281456Z AUTO 26006KT 10SM OVC004 M03/M05 A2988 RMK AO2
SLP140 T10331050 51025





000
SAUS46 KPDT 281356
MTRMEH
METAR KMEH 281356Z AUTO VRB05KT 4SM BR OVC002 M02/M03 A2985 RMK AO2
SLP129 T10221033





000
SAUS46 KPDT 281356
MTRMEH
METAR KMEH 281356Z AUTO VRB05KT 4SM BR OVC002 M02/M03 A2985 RMK AO2
SLP129 T10221033





000
SAUS46 KPDT 281349
MTRMEH
SPECI KMEH 281349Z AUTO 27005KT 2SM BR OVC002 M02/M03 A2985 RMK AO2
VIS 3/4V5 T10221033





000
SAUS46 KPDT 281349
MTRMEH
SPECI KMEH 281349Z AUTO 27005KT 2SM BR OVC002 M02/M03 A2985 RMK AO2
VIS 3/4V5 T10221033





000
SAUS46 KPDT 281318
MTRMEH
SPECI KMEH 281318Z AUTO VRB03KT 3/4SM BR VV002 M02/M02 A2984 RMK AO2
T10171022





000
SAUS46 KPDT 281318
MTRMEH
SPECI KMEH 281318Z AUTO VRB03KT 3/4SM BR VV002 M02/M02 A2984 RMK AO2
T10171022





000
SAUS46 KPDT 281307
MTRMEH
SPECI KMEH 281307Z AUTO VRB05KT 1/4SM FZFG VV002 M01/M02 A2983 RMK
AO2 T10111022





000
SAUS46 KPDT 281307
MTRMEH
SPECI KMEH 281307Z AUTO VRB05KT 1/4SM FZFG VV002 M01/M02 A2983 RMK
AO2 T10111022





000
SAUS46 KPDT 281256
MTRMEH
METAR KMEH 281256Z AUTO VRB03KT 1/2SM FZFG VV002 M01/M02 A2983 RMK
AO2 SLP118 T10111017





000
SAUS46 KPDT 281256
MTRMEH
METAR KMEH 281256Z AUTO VRB03KT 1/2SM FZFG VV002 M01/M02 A2983 RMK
AO2 SLP118 T10111017





000
SAUS46 KPDT 281244
MTRMEH
SPECI KMEH 281242Z AUTO 28003KT 3/4SM BR OVC002 M01/M02 A2982 RMK
AO2 T10061017





000
SAUS46 KPDT 281244
MTRMEH
SPECI KMEH 281242Z AUTO 28003KT 3/4SM BR OVC002 M01/M02 A2982 RMK
AO2 T10061017





000
SAUS46 KPDT 281224
MTRMEH
SPECI KMEH 281224Z AUTO VRB03KT 1 3/4SM BR OVC002 M01/M01 A2981 RMK
AO2 T10061011





000
SAUS46 KPDT 281224
MTRMEH
SPECI KMEH 281224Z AUTO VRB03KT 1 3/4SM BR OVC002 M01/M01 A2981 RMK
AO2 T10061011





000
SAUS46 KPDT 281219
MTRMEH
SPECI KMEH 281218Z AUTO VRB04KT 4SM BR OVC002 M01/M01 A2981 RMK AO2
T10061011





000
SAUS46 KPDT 281219
MTRMEH
SPECI KMEH 281218Z AUTO VRB04KT 4SM BR OVC002 M01/M01 A2981 RMK AO2
T10061011





000
SAUS46 KPDT 281205
MTRMEH
SPECI KMEH 281204Z AUTO VRB03KT 2SM BR OVC002 M01/M01 A2980 RMK AO2
T10061011





000
SAUS46 KPDT 281205
MTRMEH
SPECI KMEH 281204Z AUTO VRB03KT 2SM BR OVC002 M01/M01 A2980 RMK AO2
T10061011





000
SAUS46 KPDT 281156
MTRMEH
METAR KMEH 281156Z AUTO VRB03KT 3/4SM BR OVC002 M01/M01 A2979 RMK
AO2 SLP103 T10061011 10017 21006 53016





000
SAUS46 KPDT 281156
MTRMEH
METAR KMEH 281156Z AUTO VRB03KT 3/4SM BR OVC002 M01/M01 A2979 RMK
AO2 SLP103 T10061011 10017 21006 53016





000
SAUS46 KPDT 281155
MTRMEH
SPECI KMEH 281151Z AUTO VRB04KT 3/4SM BR BKN002 OVC006 M01/M01 A2979
RMK AO2





000
SAUS46 KPDT 281155
MTRMEH
SPECI KMEH 281151Z AUTO VRB04KT 3/4SM BR BKN002 OVC006 M01/M01 A2979
RMK AO2





000
SAUS46 KPDT 281141
MTRMEH
SPECI KMEH 281141Z AUTO VRB04KT 2 1/2SM BR BKN002 OVC005 00/M01
A2979 RMK AO2 VIS 2V4 T00001011





000
SAUS46 KPDT 281140
MTRMEH
SPECI KMEH 281138Z AUTO VRB05KT 3SM BR OVC005 00/M01 A2979 RMK AO2
T00001011





000
SAUS46 KPDT 281121
MTRMEH
SPECI KMEH 281117Z AUTO VRB03KT 4SM BR BKN004 OVC008 01/M01 A2978
RMK AO2 CIG 002V006 T00061006





000
SAUS46 KPDT 281109
MTRMEH
SPECI KMEH 281108Z AUTO 27003KT 2 1/2SM BR BKN004 OVC008 01/M01
A2977 RMK AO2 CIG 002V007 T00061006





000
SAUS46 KPDT 281056
MTRMEH
METAR KMEH 281056Z AUTO 00000KT 5SM BR OVC006 01/00 A2977 RMK AO2
CIG 003V010 SLP093 T00110000





000
SAUS46 KPDT 281056
MTRMEH
METAR KMEH 281056Z AUTO 00000KT 5SM BR OVC006 01/00 A2977 RMK AO2
CIG 003V010 SLP093 T00110000





000
SAUS46 KPDT 280956
MTRMEH
METAR KMEH 280956Z AUTO VRB03KT 3SM BR OVC004 01/01 A2976 RMK AO2
CIG 003V008 SLP089 T00110006





000
SAUS46 KPDT 280956
MTRMEH
METAR KMEH 280956Z AUTO VRB03KT 3SM BR OVC004 01/01 A2976 RMK AO2
CIG 003V008 SLP089 T00110006





000
SAUS46 KPDT 280856
MTRMEH
METAR KMEH 280856Z AUTO 00000KT 3SM BR OVC004 02/01 A2974 RMK AO2
SLP084 T00170011 53008





000
SAUS46 KPDT 280807
MTRMEH
SPECI KMEH 280805Z AUTO 00000KT 3SM BR OVC002 02/01 A2973 RMK AO2
T00170011





000
SAUS46 KPDT 280756
MTRMEH
METAR KMEH 280756Z AUTO 00000KT 2SM BR OVC002 02/01 A2973 RMK AO2
SLP079 T00170011 400561006





000
SAUS46 KPDT 280753
MTRMEH
SPECI KMEH 280753Z AUTO 00000KT 1 1/2SM BR OVC002 02/01 A2972 RMK
AO2





000
SAUS46 KPDT 280742
MTRMEH
SPECI KMEH 280738Z AUTO 00000KT 3/4SM BR OVC002 02/01 A2972 RMK AO2
T00170011





000
SAUS46 KPDT 280732
MTRMEH
SPECI KMEH 280731Z AUTO 00000KT 1SM BR OVC002 02/01 A2972 RMK AO2
T00170011





000
SAUS46 KPDT 280724
MTRMEH
SPECI KMEH 280724Z AUTO 00000KT 2SM BR OVC003 02/01 A2972 RMK AO2
T00170011





000
SAUS46 KPDT 280714
MTRMEH
SPECI KMEH 280710Z AUTO 00000KT 3SM BR OVC002 02/01 A2972 RMK AO2
T00170011





000
SAUS46 KPDT 280704
MTRMEH
SPECI KMEH 280703Z AUTO VRB03KT 1 3/4SM BR OVC002 02/01 A2972 RMK
AO2 T00170011





000
SAUS46 KPDT 280656
MTRMEH
METAR KMEH 280656Z AUTO 00000KT 3/4SM BR VV002 02/01 A2972 RMK AO2
SLP075 T00170011





000
SAUS46 KPDT 280656
MTRMEH
METAR KMEH 280656Z AUTO 00000KT 3/4SM BR VV002 02/01 A2972 RMK AO2
SLP075 T00170011





000
SAUS46 KPDT 280556
MTRMEH
METAR KMEH 280556Z AUTO 00000KT 1/4SM FG VV002 02/01 A2970 RMK AO2
RAB0458E26 SLP070 P0000 60000 T00170011 10056 20017 53010





000
SAUS46 KPDT 280556
MTRMEH
METAR KMEH 280556Z AUTO 00000KT 1/4SM FG VV002 02/01 A2970 RMK AO2
RAB0458E26 SLP070 P0000 60000 T00170011 10056 20017 53010





000
SAUS46 KPDT 280511
MTRMEH
SPECI KMEH 280511Z AUTO 00000KT 1/4SM -RA FG VV002 02/02 A2969 RMK
AO2 RAB0458 P0000 T00220017





000
SAUS46 KPDT 280511
MTRMEH
SPECI KMEH 280511Z AUTO 00000KT 1/4SM -RA FG VV002 02/02 A2969 RMK
AO2 RAB0458 P0000 T00220017





000
SAUS46 KPDT 280456
MTRMEH
METAR KMEH 280456Z AUTO 00000KT 1/2SM FG VV002 02/02 A2969 RMK AO2
RAB13E44 SLP068 P0000 T00220017





000
SAUS46 KPDT 280456
MTRMEH
METAR KMEH 280456Z AUTO 00000KT 1/2SM FG VV002 02/02 A2969 RMK AO2
RAB13E44 SLP068 P0000 T00220017





000
SAUS46 KPDT 280444
MTRMEH
SPECI KMEH 280442Z AUTO 00000KT 1/2SM -RA FG VV002 02/02 A2968 RMK
AO2 RAB13 P0000 T00220017





000
SAUS46 KPDT 280431
MTRMEH
SPECI KMEH 280431Z AUTO 00000KT 1 1/4SM -RA BR OVC002 03/02 A2968
RMK AO2 RAB13 P0000 T00280017





000
SAUS46 KPDT 280431
MTRMEH
SPECI KMEH 280431Z AUTO 00000KT 1 1/4SM -RA BR OVC002 03/02 A2968
RMK AO2 RAB13 P0000 T00280017





000
SAUS46 KPDT 280420
MTRMEH
SPECI KMEH 280420Z AUTO 00000KT 2SM -RA BR OVC002 03/02 A2968 RMK
AO2 RAB13 P0000 T00280017





000
SAUS46 KPDT 280356
MTRMEH
METAR KMEH 280356Z AUTO 00000KT 5SM BR OVC004 03/02 A2968 RMK AO2
RAB12E23 SLP064 P0000 T00280017





000
SAUS46 KPDT 280356
MTRMEH
METAR KMEH 280356Z AUTO 00000KT 5SM BR OVC004 03/02 A2968 RMK AO2
RAB12E23 SLP064 P0000 T00280017





000
SAUS46 KPDT 280340
MTRMEH
SPECI KMEH 280340Z AUTO 00000KT 5SM BR OVC004 03/02 A2967 RMK AO2
RAB12E23 P0000 T00280017





000
SAUS46 KPDT 280256
MTRMEH
METAR KMEH 280256Z AUTO 00000KT 10SM BKN006 OVC019 03/02 A2967 RMK
AO2 RAE01 CIG 005V009 SLP062 P0000 60000 T00280017 53008





000
SAUS46 KPDT 280256
MTRMEH
METAR KMEH 280256Z AUTO 00000KT 10SM BKN006 OVC019 03/02 A2967 RMK
AO2 RAE01 CIG 005V009 SLP062 P0000 60000 T00280017 53008





000
SAUS46 KPDT 280245
MTRMEH
SPECI KMEH 280245Z AUTO 00000KT 10SM BKN008 BKN019 OVC039 03/02
A2967 RMK AO2 RAE01 P0000 T00280017





000
SAUS46 KPDT 280245
MTRMEH
SPECI KMEH 280245Z AUTO 00000KT 10SM BKN008 BKN019 OVC039 03/02
A2967 RMK AO2 RAE01 P0000 T00280017





000
SAUS46 KPDT 280232
MTRMEH
SPECI KMEH 280232Z AUTO 00000KT 10SM FEW006 BKN030 OVC039 03/02
A2966 RMK AO2 RAE01 P0000 T00280017





000
SAUS46 KPDT 280232
MTRMEH
SPECI KMEH 280228Z AUTO 00000KT 10SM FEW017 BKN028 OVC036 03/02
A2966 RMK AO2 RAE01 P0000 T00280017





000
SAUS46 KPDT 280232
MTRMEH
SPECI KMEH 280232Z AUTO 00000KT 10SM FEW006 BKN030 OVC039 03/02
A2966 RMK AO2 RAE01 P0000 T00280017





000
SAUS46 KPDT 280232
MTRMEH
SPECI KMEH 280228Z AUTO 00000KT 10SM FEW017 BKN028 OVC036 03/02
A2966 RMK AO2 RAE01 P0000 T00280017





000
SAUS46 KPDT 280217
MTRMEH
SPECI KMEH 280216Z AUTO 00000KT 10SM FEW017 BKN030 OVC046 03/02
A2966 RMK AO2 RAE01 P0000 T00330017





000
SAUS46 KPDT 280217
MTRMEH
SPECI KMEH 280216Z AUTO 00000KT 10SM FEW017 BKN030 OVC046 03/02
A2966 RMK AO2 RAE01 P0000 T00330017





000
SAUS46 KPDT 280156
MTRMEH
METAR KMEH 280156Z AUTO 00000KT 10SM -RA SCT017 BKN024 OVC030 03/02
A2966 RMK AO2 RAE16B50 SLP056 P0000 T00330022





000
SAUS46 KPDT 280156
MTRMEH
METAR KMEH 280156Z AUTO 00000KT 10SM -RA SCT017 BKN024 OVC030 03/02
A2966 RMK AO2 RAE16B50 SLP056 P0000 T00330022





000
SAUS46 KPDT 280149
MTRMEH
SPECI KMEH 280147Z AUTO 00000KT 10SM SCT017 BKN024 OVC030 04/02
A2965 RMK AO2 RAE16 P0000 T00390022





000
SAUS46 KPDT 280149
MTRMEH
SPECI KMEH 280147Z AUTO 00000KT 10SM SCT017 BKN024 OVC030 04/02
A2965 RMK AO2 RAE16 P0000 T00390022





000
SAUS46 KPDT 280058
MTRMEH
METAR KMEH 280056Z AUTO VRB04KT 8SM -RA FEW023 BKN030 OVC050 04/02
A2964 RMK AO2 RAB44 SLP051 P0000 T00440022





000
SAUS46 KPDT 280058
MTRMEH
METAR KMEH 280056Z AUTO VRB04KT 8SM -RA FEW023 BKN030 OVC050 04/02
A2964 RMK AO2 RAB44 SLP051 P0000 T00440022





000
SAUS46 KPDT 272356
MTRMEH
METAR KMEH 272356Z AUTO VRB03KT 10SM BKN055 OVC070 06/01 A2964 RMK
AO2 SLP049 60000 T00560006 10056 20033 55006





000
SAUS46 KPDT 272356
MTRMEH
METAR KMEH 272356Z AUTO VRB03KT 10SM BKN055 OVC070 06/01 A2964 RMK
AO2 SLP049 60000 T00560006 10056 20033 55006





000
SAUS46 KPDT 272256
MTRMEH
METAR KMEH 272256Z AUTO VRB04KT 10SM OVC070 06/01 A2964 RMK AO2
SLP049 T00560006





000
SAUS46 KPDT 272256
MTRMEH
METAR KMEH 272256Z AUTO VRB04KT 10SM OVC070 06/01 A2964 RMK AO2
SLP049 T00560006





000
SAUS46 KPDT 272156
MTRMEH
METAR KMEH 272156Z AUTO 00000KT 10SM OVC065 05/01 A2964 RMK AO2
RAE33 SLP052 P0000 T00500011





000
SAUS46 KPDT 272156
MTRMEH
METAR KMEH 272156Z AUTO 00000KT 10SM OVC065 05/01 A2964 RMK AO2
RAE33 SLP052 P0000 T00500011





000
SAUS46 KPDT 272115
MTRMEH
SPECI KMEH 272115Z AUTO VRB03KT 7SM -RA SCT015 BKN033 OVC045 05/02
A2966 RMK AO2 P0000 T00500017





000
SAUS46 KPDT 272115
MTRMEH
SPECI KMEH 272115Z AUTO VRB03KT 7SM -RA SCT015 BKN033 OVC045 05/02
A2966 RMK AO2 P0000 T00500017





000
SAUS46 KPDT 272056
MTRMEH
METAR KMEH 272056Z AUTO 09003KT 4SM -RA SCT014 BKN027 OVC037 04/01
A2966 RMK AO2 RAB34 SLP058 P0000 60000 T00440011 58010





000
SAUS46 KPDT 272021 COR
MTRMEH
SPECI KMEH 272016Z AUTO 00000KT 10SM BKN014 OVC060 05/02 A2967 RMK
AO2 T00500017





000
SAUS46 KPDT 272016
MTRMEH
SPECI KMEH 272016Z AUTO 00000KT 10SM BKN014 OVC060 05/02 A2967 RMK
AO2 T00500017





000
SAUS46 KPDT 271956
MTRMEH
METAR KMEH 271956Z AUTO 00000KT 10SM SCT014 SCT038 OVC060 05/02
A2968 RMK AO2 SLP062 T00500017





000
SAUS46 KPDT 271956
MTRMEH
METAR KMEH 271956Z AUTO 00000KT 10SM SCT014 SCT038 OVC060 05/02
A2968 RMK AO2 SLP062 T00500017





000
SAUS46 KPDT 271948 COR
MTRMEH
SPECI KMEH 271943Z AUTO 00000KT 10SM SCT014 OVC065 05/02 A2968 RMK
AO2 T00500017





000
SAUS46 KPDT 271948 COR
MTRMEH
SPECI KMEH 271943Z AUTO 00000KT 10SM SCT014 OVC065 05/02 A2968 RMK
AO2 T00500017





000
SAUS46 KPDT 271943
MTRMEH
SPECI KMEH 271943Z AUTO 00000KT 10SM SCT014 OVC065 05/02 A2968 RMK
AO2 T00500017





000
SAUS46 KPDT 271943
MTRMEH
SPECI KMEH 271943Z AUTO 00000KT 10SM SCT014 OVC065 05/02 A2968 RMK
AO2 T00500017





000
SAUS46 KPDT 271856
MTRMEH
METAR KMEH 271856Z AUTO 00000KT 10SM BKN012 OVC075 04/02 A2969 RMK
AO2 SLP065 T00440017





000
SAUS46 KPDT 271856
MTRMEH
METAR KMEH 271856Z AUTO 00000KT 10SM BKN012 OVC075 04/02 A2969 RMK
AO2 SLP065 T00440017





000
SAUS46 KPDT 271756
MTRMEH
METAR KMEH 271756Z AUTO 00000KT 10SM BKN011 OVC060 03/01 A2969 RMK
AO2 SLP070 I6000 T00330011 10033 20000 58001





000
SAUS46 KPDT 271756
MTRMEH
METAR KMEH 271756Z AUTO 00000KT 10SM BKN011 OVC060 03/01 A2969 RMK
AO2 SLP070 I6000 T00330011 10033 20000 58001





000
SAUS46 KPDT 271709
MTRMEH
SPECI KMEH 271709Z AUTO 00000KT 10SM BKN010 OVC070 02/01 A2970 RMK
AO2 T00220011





000
SAUS46 KPDT 271709
MTRMEH
SPECI KMEH 271709Z AUTO 00000KT 10SM BKN010 OVC070 02/01 A2970 RMK
AO2 T00220011





000
SAUS46 KPDT 271656
MTRMEH
METAR KMEH 271656Z AUTO 00000KT 10SM SCT010 BKN055 OVC070 02/01
A2970 RMK AO2 SLP074 T00170006





000
SAUS46 KPDT 271656
MTRMEH
METAR KMEH 271656Z AUTO 00000KT 10SM SCT010 BKN055 OVC070 02/01
A2970 RMK AO2 SLP074 T00170006





000
SAUS46 KPDT 271636
MTRMEH
SPECI KMEH 271636Z AUTO 00000KT 10SM FEW012 BKN060 OVC070 02/01
A2970 RMK AO2 T00170006





000
SAUS46 KPDT 271636
MTRMEH
SPECI KMEH 271636Z AUTO 00000KT 10SM FEW012 BKN060 OVC070 02/01
A2970 RMK AO2 T00170006





000
SAUS46 KPDT 271556
MTRMEH
METAR KMEH 271556Z AUTO 00000KT 10SM OVC010 01/00 A2970 RMK AO2
SLP075 T00110000





000
SAUS46 KPDT 271556
MTRMEH
METAR KMEH 271556Z AUTO 00000KT 10SM OVC010 01/00 A2970 RMK AO2
SLP075 T00110000





000
SAUS46 KPDT 271548
MTRMEH
SPECI KMEH 271547Z AUTO 00000KT 9SM OVC011 01/00 A2970 RMK AO2 CIG
007V014 T00110000





000
SAUS46 KPDT 271548
MTRMEH
SPECI KMEH 271547Z AUTO 00000KT 9SM OVC011 01/00 A2970 RMK AO2 CIG
007V014 T00110000





000
SAUS46 KPDT 271508
MTRMEH
SPECI KMEH 271504Z AUTO 00000KT 8SM BKN007 OVC110 01/00 A2970 RMK
AO2 T00060000





000
SAUS46 KPDT 271456
MTRMEH
METAR KMEH 271456Z AUTO 00000KT 7SM SCT006 BKN110 01/M01 A2970 RMK
AO2 SLP073 I3000 T00061006 56007





000
SAUS46 KPDT 271456
MTRMEH
METAR KMEH 271456Z AUTO 00000KT 7SM SCT006 BKN110 01/M01 A2970 RMK
AO2 SLP073 I3000 T00061006 56007





000
SAUS46 KPDT 271356
MTRMEH
METAR KMEH 271356Z AUTO 00000KT 10SM OVC005 01/M01 A2970 RMK AO2
SLP075 T00061006





000
SAUS46 KPDT 271356
MTRMEH
METAR KMEH 271356Z AUTO 00000KT 10SM OVC005 01/M01 A2970 RMK AO2
SLP075 T00061006





000
SAUS46 KPDT 271328
MTRMEH
SPECI KMEH 271326Z AUTO 00000KT 10SM OVC005 01/M01 A2971 RMK AO2
T00061006





000
SAUS46 KPDT 271328
MTRMEH
SPECI KMEH 271326Z AUTO 00000KT 10SM OVC005 01/M01 A2971 RMK AO2
T00061006





000
SAUS46 KPDT 271311
MTRMEH
SPECI KMEH 271307Z AUTO 00000KT 10SM OVC004 01/M01 A2972 RMK AO2
T00061006





000
SAUS46 KPDT 271256
MTRMEH
METAR KMEH 271256Z AUTO 00000KT 10SM OVC005 01/00 A2972 RMK AO2
SLP080 I1000 T00060000





000
SAUS46 KPDT 271156
MTRMEH
METAR KMEH 271156Z AUTO 00000KT 10SM OVC005 00/M01 A2974 RMK AO2
SLP086 70016 I6000 T00001006 10006 21006 56016





000
SAUS46 KPDT 271154
MTRMEH
SPECI KMEH 271152Z AUTO 00000KT 10SM OVC005 00/M01 A2974 RMK AO2 CIG
003V007





000
SAUS46 KPDT 271100
MTRMEH
METAR KMEH 271056Z AUTO 00000KT 9SM BKN004 BKN075 00/M02 A2977 RMK
AO2 SLP096 I1000 T00001017





000
SAUS46 KPDT 271014
MTRMEH
SPECI KMEH 271014Z AUTO 00000KT 4SM BR SCT002 BKN041 00/M01 A2978
RMK AO2 T00001011





000
SAUS46 KPDT 271011
MTRMEH
SPECI KMEH 271011Z AUTO 00000KT 1 3/4SM BR BKN002 BKN041 00/M01
A2978 RMK AO2 T00001011





000
SAUS46 KPDT 270957
MTRMEH
METAR KMEH 270956Z AUTO 00000KT 1/2SM FZFG BKN001 OVC035 M01/M01
A2979 RMK AO2 SLP106 T10061011





000
SAUS46 KPDT 270954
MTRMEH
SPECI KMEH 270954Z AUTO 00000KT 1/2SM FZFG BKN001 OVC035 M01/M01
A2979 RMK AO2





000
SAUS46 KPDT 270946
MTRMEH
SPECI KMEH 270946Z AUTO 00000KT 3/4SM BR SCT001 OVC035 00/M01 A2980
RMK AO2 T00001011





000
SAUS46 KPDT 270942
MTRMEH
SPECI KMEH 270940Z AUTO 00000KT 2SM BR FEW001 OVC034 M01/M01 A2980
RMK AO2 VIS 1/2V5 T10061011





000
SAUS46 KPDT 270937
MTRMEH
SPECI KMEH 270935Z AUTO 00000KT 3SM BR OVC034 00/M01 A2980 RMK AO2
T00001011





000
SAUS46 KPDT 270928
MTRMEH
SPECI KMEH 270928Z AUTO 00000KT 1SM BR OVC034 00/M01 A2980 RMK AO2
T00001011





000
SAUS46 KPDT 270915
MTRMEH
SPECI KMEH 270915Z AUTO 00000KT 3/4SM BR OVC032 00/M01 A2981 RMK AO2
T00001011





000
SAUS46 KPDT 270908
MTRMEH
SPECI KMEH 270904Z AUTO 00000KT 1 1/4SM BR FEW001 BKN032 OVC060
M01/M01 A2981 RMK AO2 T10061011





000
SAUS46 KPDT 270856
MTRMEH
METAR KMEH 270856Z AUTO 00000KT 3/4SM BR FEW001 BKN032 OVC060
M01/M01 A2981 RMK AO2 SLP112 T10061011 58017





000
SAUS46 KPDT 270847
MTRMEH
SPECI KMEH 270847Z AUTO 00000KT 1/2SM FG FEW001 FEW032 OVC060 00/M01
A2981 RMK AO2 T00001011





000
SAUS46 KPDT 270843 COR
MTRMEH
SPECI KMEH 270838Z AUTO 00000KT 1SM BR FEW001 OVC060 00/M01 A2982
RMK AO2 T00001006





000
SAUS46 KPDT 270830
MTRMEH
SPECI KMEH 270829Z AUTO 00000KT 1 1/2SM BR OVC055 01/M01 A2982 RMK
AO2 T00061006





000
SAUS46 KPDT 270821
MTRMEH
SPECI KMEH 270819Z AUTO 00000KT 4SM BR OVC060 00/M01 A2982 RMK AO2
T00001006





000
SAUS46 KPDT 270815 COR
MTRMEH
SPECI KMEH 270811Z AUTO 00000KT 2 1/2SM BR OVC055 00/M01 A2983 RMK
AO2 T00001006





000
SAUS46 KPDT 270812 COR
MTRMEH
SPECI KMEH 270811Z AUTO 00000KT 2 1/2SM BR OVC055 00/M01 A2983 RMK
AO2 T00001006





000
SAUS46 KPDT 270811
MTRMEH
SPECI KMEH 270811Z AUTO 00000KT 2 1/2SM BR OVC055 00/M01 A2983 RMK
AO2 T00001006





000
SAUS46 KPDT 270756
MTRMEH
METAR KMEH 270756Z AUTO 00000KT 4SM BR SCT006 OVC060 01/M01 A2983
RMK AO2 SLP119 T00061006 400440000





000
SAUS46 KPDT 270750
MTRMEH
SPECI KMEH 270750Z AUTO 00000KT 4SM BR SCT006 SCT013 OVC060 01/M01
A2983 RMK AO2





000
SAUS46 KPDT 270716
MTRMEH
SPECI KMEH 270716Z AUTO 00000KT 4SM BR BKN008 BKN012 OVC037 01/00
A2985 RMK AO2 CIG 006V010 T00060000





000
SAUS46 KPDT 270716
MTRMEH
SPECI KMEH 270716Z AUTO 00000KT 4SM BR BKN008 BKN012 OVC037 01/00
A2985 RMK AO2 CIG 006V010 T00060000





000
SAUS46 KPDT 270656
MTRMEH
METAR KMEH 270656Z AUTO 00000KT 5SM BR SCT017 BKN031 OVC038 01/00
A2986 RMK AO2 SLP128 T00060000





000
SAUS46 KPDT 270640
MTRMEH
SPECI KMEH 270640Z AUTO 00000KT 4SM BR SCT017 OVC032 01/00 A2986 RMK
AO2 T00060000





000
SAUS46 KPDT 270636
MTRMEH
SPECI KMEH 270636Z AUTO 00000KT 2 1/2SM BR BKN017 OVC032 01/00 A2986
RMK AO2 T00060000





000
SAUS46 KPDT 270620
MTRMEH
SPECI KMEH 270620Z AUTO 00000KT 1 1/4SM BR OVC033 01/M01 A2986 RMK
AO2 T00061006





000
SAUS46 KPDT 270608
MTRMEH
SPECI KMEH 270608Z AUTO 00000KT 1/2SM FG FEW001 SCT019 OVC035 01/M01
A2986 RMK AO2 T00061006





000
SAUS46 KPDT 270556
MTRMEH
METAR KMEH 270556Z AUTO 00000KT 1/2SM FG FEW002 BKN018 OVC070 01/M01
A2987 RMK AO2 SLP132 T00061006 10044 20000 58010





000
SAUS46 KPDT 270546
MTRMEH
SPECI KMEH 270546Z AUTO 00000KT 1/2SM FG FEW002 BKN024 OVC075 01/M01
A2987 RMK AO2 T00061006





000
SAUS46 KPDT 270529
MTRMEH
SPECI KMEH 270529Z AUTO 00000KT 3/4SM BR FEW002 OVC070 01/M01 A2987
RMK AO2 T00061006





000
SAUS46 KPDT 270504
MTRMEH
SPECI KMEH 270504Z AUTO 00000KT 3SM BR FEW021 BKN065 OVC090 01/01
A2988 RMK AO2 T00110006





000
SAUS46 KPDT 270500 COR
MTRMEH
METAR KMEH 270456Z AUTO 00000KT 2 1/2SM BR SCT021 OVC065 01/01 A2989
RMK AO2 SLP139 T00110006





000
SAUS46 KPDT 270500 COR
MTRMEH
METAR KMEH 270456Z AUTO 00000KT 2 1/2SM BR SCT021 OVC065 01/01 A2989
RMK AO2 SLP139 T00110006





000
SAUS46 KPDT 270457 COR
MTRMEH
METAR KMEH 270456Z AUTO 00000KT 2 1/2SM BR SCT021 OVC065 01/01 A2989
RMK AO2 SLP139 T00110006





000
SAUS46 KPDT 270457 COR
MTRMEH
METAR KMEH 270456Z AUTO 00000KT 2 1/2SM BR SCT021 OVC065 01/01 A2989
RMK AO2 SLP139 T00110006





000
SAUS46 KPDT 270456
MTRMEH
METAR KMEH 270456Z AUTO 00000KT 2 1/2SM BR SCT021 OVC065 01/01 A2989
RMK AO2 SLP139 T00110006





000
SAUS46 KPDT 270456
MTRMEH
METAR KMEH 270456Z AUTO 00000KT 2 1/2SM BR SCT021 OVC065 01/01 A2989
RMK AO2 SLP139 T00110006





000
SAUS46 KPDT 270449
MTRMEH
SPECI KMEH 270449Z AUTO 00000KT 4SM BR SCT022 OVC065 01/01 A2989 RMK
AO2 T00110006





000
SAUS46 KPDT 270441
MTRMEH
SPECI KMEH 270441Z AUTO 00000KT 6SM BR BKN022 BKN060 OVC085 01/01
A2989 RMK AO2 T00110006





000
SAUS46 KPDT 270441
MTRMEH
SPECI KMEH 270441Z AUTO 00000KT 6SM BR BKN022 BKN060 OVC085 01/01
A2989 RMK AO2 T00110006





000
SAUS46 KPDT 270425
MTRMEH
SPECI KMEH 270425Z AUTO 00000KT 6SM BR FEW020 BKN060 OVC085 01/01
A2990 RMK AO2 T00110006





000
SAUS46 KPDT 270425
MTRMEH
SPECI KMEH 270425Z AUTO 00000KT 6SM BR FEW020 BKN060 OVC085 01/01
A2990 RMK AO2 T00110006





000
SAUS46 KPDT 270419
MTRMEH
SPECI KMEH 270415Z AUTO 00000KT 2SM BR SCT022 SCT029 OVC060 02/01
A2990 RMK AO2 VIS 1 1/4V5 T00170006





000
SAUS46 KPDT 270408
MTRMEH
SPECI KMEH 270404Z AUTO 00000KT 1 3/4SM BR BKN022 BKN029 OVC060
02/01 A2990 RMK AO2 VIS 1V5 T00170011





000
SAUS46 KPDT 270356
MTRMEH
METAR KMEH 270356Z AUTO 00000KT 5SM BR BKN022 BKN055 OVC085 02/01
A2990 RMK AO2 SLP143 T00170011





000
SAUS46 KPDT 270351
MTRMEH
SPECI KMEH 270351Z AUTO 00000KT 5SM BR BKN022 OVC050 02/01 A2990 RMK
AO2





000
SAUS46 KPDT 270351
MTRMEH
SPECI KMEH 270351Z AUTO 00000KT 5SM BR BKN022 OVC050 02/01 A2990 RMK
AO2





000
SAUS46 KPDT 270314
MTRMEH
SPECI KMEH 270314Z AUTO 00000KT 3SM BR FEW024 BKN038 OVC050 02/01
A2992 RMK AO2 T00220011





000
SAUS46 KPDT 270307
MTRMEH
SPECI KMEH 270306Z AUTO 00000KT 2SM BR BKN026 BKN038 OVC055 02/02
A2992 RMK AO2 VIS 1V5 T00220017





000
SAUS46 KPDT 270256
MTRMEH
METAR KMEH 270256Z AUTO 00000KT 3/4SM BR SCT024 SCT032 OVC055 02/02
A2992 RMK AO2 SLP150 T00220017 56014





000
SAUS46 KPDT 270254
MTRMEH
SPECI KMEH 270253Z AUTO 00000KT 1 3/4SM BR FEW026 SCT032 OVC055
02/01 A2992 RMK AO2





000
SAUS46 KPDT 270156
MTRMEH
METAR KMEH 270156Z AUTO 00000KT 5SM BR BKN055 OVC075 03/02 A2994 RMK
AO2 SLP154 T00280017





000
SAUS46 KPDT 270124
MTRMEH
SPECI KMEH 270124Z AUTO 00000KT 4SM BR OVC080 03/02 A2994 RMK AO2
T00330022





000
SAUS46 KPDT 270118
MTRMEH
SPECI KMEH 270116Z AUTO 00000KT 2 1/2SM BR FEW049 OVC080 03/02 A2994
RMK AO2 T00330022





000
SAUS46 KPDT 270056
MTRMEH
METAR KMEH 270056Z AUTO 00000KT 7SM BKN048 OVC080 04/02 A2995 RMK
AO2 SLP157 T00390022





000
SAUS46 KPDT 262356
MTRMEH
METAR KMEH 262356Z AUTO 00000KT 10SM SCT013 BKN048 OVC060 04/02
A2997 RMK AO2 RAE17 SLP164 P0001 60003 T00440017 10044 20022 56017





000
SAUS46 KPDT 262340
MTRMEH
SPECI KMEH 262338Z AUTO 00000KT 10SM BKN014 BKN038 OVC048 04/02
A2998 RMK AO2 RAE17 P0001 T00440017





000
SAUS46 KPDT 262256
MTRMEH
METAR KMEH 262256Z AUTO 00000KT 7SM -RA FEW015 BKN038 OVC070 04/02
A2998 RMK AO2 RAB44 SLP169 P0000 T00390022





000
SAUS46 KPDT 262256
MTRMEH
METAR KMEH 262256Z AUTO 00000KT 7SM -RA FEW015 BKN038 OVC070 04/02
A2998 RMK AO2 RAB44 SLP169 P0000 T00390022





000
SAUS46 KPDT 262240
MTRMEH
SPECI KMEH 262240Z AUTO 26003KT 10SM SCT015 BKN060 OVC075 04/02
A2999 RMK AO2 T00440022





000
SAUS46 KPDT 262240
MTRMEH
SPECI KMEH 262240Z AUTO 26003KT 10SM SCT015 BKN060 OVC075 04/02
A2999 RMK AO2 T00440022





000
SAUS46 KPDT 262227 COR
MTRMEH
SPECI KMEH 262223Z AUTO 00000KT 10SM BKN013 BKN024 OVC060 04/02
A2999 RMK AO2 T00390022





000
SAUS46 KPDT 262105
MTRMEH
SPECI KMEH 262104Z AUTO 00000KT 9SM -RA SCT010 BKN019 OVC036 03/02
A3002 RMK AO2 RAB2058 P0000 T00330022





    US Dept of Commerce
    National Oceanic and Atmospheric Administration
    National Weather Service
    1325 East West Highway
    Silver Spring, MD 20910
    Page Author: NWS Internet Services Team
Disclaimer
Information Quality
Credits
Glossary
Privacy Policy
Freedom of Information Act (FOIA)
About Us
Career Opportunities